Las Mesitas, Colorado
Current Conditions -  °F | °C
As of 1:52 PM on Thursday 20 Nov 2014 (Local Time) from KALS Reporting Station
Broken Clouds Broken Clouds  
Wind Chill: 44°   Ceiling: 8500
Heat Index: 44°   Visibility: 10mi
Dew Point:   Wind: 0mph
Humidity: 21%   Direction: NA
Pressure: 30.05"   Gusts: NA
Location:  37.1816°N, 106.262°W
Report Text: KALS 202052Z AUTO 00000KT 10SM BKN085 07/M14 A3005 RMK AO2 SLP189 T00671144 56025
Loading
Personal Weather Stations






























Interactive Weather Map New forecast layout! Learn more

10-Day Weather Forecast

Advertisements
Track Severe Weather on mobile